createdAt,value
2022-08-01T00:01:14.935Z,26.30
2022-08-01T00:11:20.141Z,26.70
2022-08-01T00:21:24.231Z,26.70
2022-08-01T00:31:29.475Z,26.80
2022-08-01T00:41:33.415Z,26.80
2022-08-01T00:51:38.643Z,26.80
2022-08-01T01:01:46.483Z,26.90
2022-08-01T01:12:04.059Z,26.80
2022-08-01T01:22:37.272Z,26.70
2022-08-01T01:32:45.877Z,26.70
2022-08-01T01:42:50.235Z,26.50
2022-08-01T01:52:57.727Z,26.50
2022-08-01T02:03:03.930Z,26.60
2022-08-01T02:13:10.052Z,26.50
2022-08-01T02:23:15.442Z,26.30
2022-08-01T02:33:23.503Z,26.30
2022-08-01T02:43:31.132Z,26.30
2022-08-01T02:53:44.766Z,26.20
2022-08-01T03:03:48.966Z,26.00
2022-08-01T03:13:55.806Z,26.00
2022-08-01T03:24:02.265Z,26.00
2022-08-01T03:34:08.703Z,26.10
2022-08-01T03:44:16.747Z,26.00
2022-08-01T03:54:26.271Z,25.90
2022-08-01T04:04:31.414Z,25.90
2022-08-01T04:14:37.199Z,26.00
2022-08-01T04:24:43.381Z,26.20
2022-08-01T04:34:50.088Z,26.30
2022-08-01T04:44:54.532Z,26.30
2022-08-01T04:54:59.760Z,26.20
2022-08-01T05:05:03.840Z,26.20
2022-08-01T05:15:15.125Z,26.10
2022-08-01T05:25:20.682Z,26.50
2022-08-01T05:35:48.002Z,26.70
2022-08-01T05:45:53.153Z,26.80
2022-08-01T05:55:58.332Z,26.80
2022-08-01T06:06:02.532Z,27.00
2022-08-01T06:16:08.631Z,27.20
2022-08-01T06:26:12.503Z,27.70
2022-08-01T06:36:17.799Z,28.20
2022-08-01T06:46:21.687Z,28.10
2022-08-01T06:56:26.908Z,28.00
2022-08-01T07:06:30.638Z,28.10
2022-08-01T07:16:35.978Z,28.20
2022-08-01T07:26:40.028Z,28.20
2022-08-01T07:36:57.942Z,28.50
2022-08-01T07:47:01.717Z,28.50
2022-08-01T07:57:06.984Z,28.70
2022-08-01T08:07:10.969Z,28.70
2022-08-01T08:17:16.154Z,29.00
2022-08-01T08:27:19.893Z,29.00
2022-08-01T08:37:25.147Z,29.30
2022-08-01T08:47:37.116Z,29.50
2022-08-01T08:57:46.147Z,29.70
2022-08-01T09:07:49.831Z,29.80
2022-08-01T09:17:55.071Z,30.10
2022-08-01T09:28:07.086Z,30.40
2022-08-01T09:38:19.946Z,30.60
2022-08-01T09:48:28.057Z,30.70
2022-08-01T09:58:58.129Z,30.90
2022-08-01T10:09:02.862Z,31.00
2022-08-01T10:19:11.371Z,31.30
2022-08-01T10:29:46.576Z,31.30
2022-08-01T10:39:46.982Z,31.30
2022-08-01T10:49:56.249Z,31.90
2022-08-01T11:00:03.430Z,32.00
2022-08-01T11:10:18.931Z,31.90
2022-08-01T11:20:31.873Z,32.80
2022-08-01T11:30:35.949Z,32.70
2022-08-01T11:40:44.811Z,34.00
2022-08-01T11:50:48.978Z,34.20
2022-08-01T12:00:55.424Z,34.90
2022-08-01T12:11:02.097Z,36.20
2022-08-01T12:21:08.047Z,35.50
2022-08-01T12:31:12.763Z,35.50
2022-08-01T12:41:19.474Z,35.30
2022-08-01T12:51:23.572Z,36.10
2022-08-01T13:01:30.421Z,35.60
2022-08-01T13:11:35.938Z,36.30
2022-08-01T13:21:52.696Z,36.80
2022-08-01T13:31:59.020Z,36.40
2022-08-01T13:42:04.572Z,36.50
2022-08-01T13:52:09.304Z,36.70
2022-08-01T14:02:14.551Z,36.40
2022-08-01T14:12:18.659Z,37.00
2022-08-01T14:22:24.374Z,37.20
2022-08-01T14:32:29.052Z,38.70
2022-08-01T14:42:34.288Z,38.40
2022-08-01T14:52:39.417Z,38.80
2022-08-01T15:02:44.985Z,38.70
2022-08-01T15:12:50.648Z,37.80
2022-08-01T15:22:56.173Z,38.90
2022-08-01T15:33:00.342Z,39.60
2022-08-01T15:43:05.719Z,38.90
2022-08-01T15:53:10.326Z,37.80
2022-08-01T16:03:15.444Z,36.10
2022-08-01T16:13:19.506Z,34.10
2022-08-01T16:23:24.619Z,33.20
2022-08-01T16:33:45.799Z,32.60
2022-08-01T16:43:54.818Z,32.40
2022-08-01T16:53:58.783Z,32.20
2022-08-01T17:04:04.481Z,32.30
2022-08-01T17:14:08.300Z,32.20
2022-08-01T17:24:16.553Z,32.70
2022-08-01T17:34:20.795Z,33.90
2022-08-01T17:44:27.717Z,34.50
2022-08-01T17:54:31.557Z,34.40
2022-08-01T18:04:36.903Z,33.40
2022-08-01T18:14:48.260Z,32.20
2022-08-01T18:24:54.781Z,30.70
2022-08-01T18:34:58.541Z,30.20
2022-08-01T18:45:04.841Z,30.10
2022-08-01T18:55:09.297Z,29.80
2022-08-01T19:05:14.450Z,29.60
2022-08-01T19:15:18.368Z,29.30
2022-08-01T19:25:24.285Z,29.40
2022-08-01T19:35:28.455Z,29.10
2022-08-01T19:45:34.746Z,29.00
2022-08-01T19:55:40.943Z,29.00
2022-08-01T20:05:46.551Z,28.90
2022-08-01T20:15:51.214Z,28.90
2022-08-01T20:25:59.774Z,28.80
2022-08-01T20:36:05.550Z,28.90
2022-08-01T20:46:18.325Z,28.60
2022-08-01T20:56:31.222Z,28.70
2022-08-01T21:06:39.169Z,28.90
2022-08-01T21:16:47.894Z,28.70
2022-08-01T21:26:55.186Z,28.50
2022-08-01T21:36:59.214Z,28.60
2022-08-01T21:47:05.179Z,28.80
2022-08-01T21:57:19.178Z,29.30
2022-08-01T22:07:26.974Z,29.30
2022-08-01T22:17:30.918Z,29.20
2022-08-01T22:28:05.843Z,29.10
2022-08-01T22:38:00.593Z,29.10
2022-08-01T22:48:16.005Z,29.20
2022-08-01T22:58:20.700Z,29.00
2022-08-01T23:08:26.659Z,29.00
2022-08-01T23:18:31.701Z,29.10
2022-08-01T23:28:37.688Z,29.10
2022-08-01T23:38:41.540Z,29.10
2022-08-01T23:48:46.914Z,28.90
2022-08-01T23:58:50.666Z,28.70
